Kahloke — CZ3845 — position and weather

sailwx.info

Track history (hours):
 
Tides and Currents Weather Stations Pressure Air Temp Water Temp Dewpoint Dewpoint Depression Visibility Wind Speed Wind Dir Waves Ship Positions

Kahloke

Last reported at 2017-Feb-23 02:15 UTC. Time now 2017-Feb-23 02:43 UTC.
Position N 49°32' W 124°49'.

Length 54 m; draft 2 m.

Type: Passenger vessel. MMSI: 316001236.

Date/timePositionNaut miles runAvg speedWind from/ knotsBaromVisibWave heightAir tempDewpointWater temp
2017-Feb-23 02:15N 49°32' W 124°49'5172.8
2017-Feb-23 02:13N 49°30' W 124°43'5 6.8
2017-Feb-23 01:28N 49°32' W 124°49'529.9
2017-Feb-23 01:18N 49°30' W 124°43'5 5.8
2017-Feb-23 00:25N 49°32' W 124°49'5114.3
2017-Feb-23 00:23N 49°30' W 124°43'5 5.7
2017-Feb-22 23:30N 49°32' W 124°49'513.5
2017-Feb-22 23:07N 49°30' W 124°43'0 0.2
2017-Feb-22 22:25N 49°30' W 124°43'560.4
2017-Feb-22 22:20N 49°32' W 124°49'1 0.8
2017-Feb-22 21:33N 49°32' W 124°50'599.5
2017-Feb-22 21:29N 49°30' W 124°43'6 5.2
2017-Feb-22 20:23N 49°32' W 124°51'627.9
2017-Feb-22 20:11N 49°30' W 124°43'5 8.1
2017-Feb-22 19:33N 49°32' W 124°49'513.3
2017-Feb-22 19:10N 49°30' W 124°43'5 8.1
2017-Feb-22 18:33N 49°32' W 124°49'516.4
2017-Feb-22 18:14N 49°30' W 124°43'5 7.5
2017-Feb-22 17:33N 49°32' W 124°49'514.4
2017-Feb-22 17:12N 49°30' W 124°43'5 7.9
2017-Feb-22 16:33N 49°32' W 124°49'5365.8
2017-Feb-22 16:32N 49°30' W 124°42'6 5.8
2017-Feb-22 15:33N 49°32' W 124°51'6 5.5
2017-Feb-22 14:31N 49°30' W 124°42'0 0.1
2017-Feb-22 11:19N 49°31' W 124°42'0 0.0
2017-Feb-22 09:31N 49°31' W 124°42'5 5.1
2017-Feb-22 08:33N 49°32' W 124°49'5148.0
2017-Feb-22 08:31N 49°31' W 124°42'0 0.0
2017-Feb-22 07:31N 49°31' W 124°42'0 0.0
2017-Feb-22 06:25N 49°31' W 124°42'0 0.0
2017-Feb-22 05:31N 49°31' W 124°42'5 5.1
2017-Feb-22 04:33N 49°32' W 124°50'1 0.7
2017-Feb-22 03:14N 49°32' W 124°51'1 1.2
2017-Feb-22 02:25N 49°32' W 124°49'534.8
2017-Feb-22 02:16N 49°30' W 124°43'5 6.0
2017-Feb-22 01:26N 49°32' W 124°49'530.3
2017-Feb-22 01:15N 49°30' W 124°43'0 0.0
2017-Feb-22 00:26N 49°30' W 124°43'540.8
2017-Feb-22 00:18N 49°32' W 124°49'0 0.0
2017-Feb-21 23:33N 49°32' W 124°49'516.6
2017-Feb-21 23:14N 49°30' W 124°43'5 7.4
2017-Feb-21 22:33N 49°32' W 124°49'5179.6
2017-Feb-21 22:31N 49°30' W 124°42'1 0.6
2017-Feb-21 21:31N 49°30' W 124°43'51670.7
2017-Feb-21 21:31N 49°32' W 124°49'1 0.7
2017-Feb-21 20:33N 49°32' W 124°50'616.6
2017-Feb-21 20:13N 49°30' W 124°43'6 8.6
2017-Feb-21 19:33N 49°32' W 124°51'668.8
2017-Feb-21 19:28N 49°30' W 124°43'5 5.6
2017-Feb-21 18:32N 49°32' W 124°50'5167.2
2017-Feb-21 18:31N 49°30' W 124°43'0 0.0
2017-Feb-21 17:33N 49°30' W 124°43'0 0.2
2017-Feb-21 16:33N 49°30' W 124°42'1 0.2
2017-Feb-21 11:26N 49°31' W 124°42'0 0.0
2017-Feb-21 09:32N 49°31' W 124°42'1 0.1
2017-Feb-21 02:18N 49°30' W 124°43'0 0.2
2017-Feb-21 01:23N 49°30' W 124°43'0 0.0
2017-Feb-21 00:29N 49°30' W 124°43'6 6.0
2017-Feb-20 23:32N 49°32' W 124°51'614.6
2017-Feb-20 23:08N 49°30' W 124°43'2 2.9
2017-Feb-20 22:33N 49°28' W 124°41'270.2
2017-Feb-20 22:32N 49°30' W 124°42'6 5.7
2017-Feb-20 21:33N 49°35' W 124°43'8 8.6
2017-Feb-20 20:33N 49°44' W 124°40'1442.9
2017-Feb-20 20:13N 49°30' W 124°43'1928.3
2017-Feb-20 19:33N 49°48' W 124°33'19149.6
2017-Feb-20 19:25N 49°30' W 124°43'2123.7
2017-Feb-20 18:33N 49°44' W 124°20'21573.5
2017-Feb-20 18:31N 49°30' W 124°43'1 0.6
2017-Feb-20 17:28N 49°30' W 124°42'26271.8
2017-Feb-20 17:22N 49°47' W 124°11'26 4.5
2017-Feb-20 11:30N 49°31' W 124°42'0 0.0
2017-Feb-20 10:30N 49°31' W 124°42'0 0.0
2017-Feb-20 09:30N 49°31' W 124°42'0 0.0
2017-Feb-20 08:30N 49°31' W 124°42'0 0.0
2017-Feb-20 07:18N 49°31' W 124°42'0 0.0
2017-Feb-20 06:30N 49°31' W 124°42'1 0.2
2017-Feb-20 02:15N 49°30' W 124°43'0 0.1
2017-Feb-20 01:21N 49°30' W 124°43'0 0.1
2017-Feb-20 00:19N 49°30' W 124°42'0 0.1
2017-Feb-19 23:33N 49°30' W 124°43'27390.7
2017-Feb-19 23:29N 49°47' W 124°11'0 0.0
2017-Feb-19 22:24N 49°47' W 124°11'27256.7
2017-Feb-19 22:18N 49°30' W 124°43'2722.9
2017-Feb-19 21:07N 49°47' W 124°11'0 0.0
2017-Feb-19 20:30N 49°47' W 124°11'2766.7
2017-Feb-19 20:06N 49°30' W 124°43'2546.1
2017-Feb-19 19:33N 49°47' W 124°13'2671.1
2017-Feb-19 19:11N 49°30' W 124°43'2741.9
2017-Feb-19 18:33N 49°47' W 124°11'2787.0
2017-Feb-19 18:14N 49°30' W 124°43'0 0.1
2017-Feb-19 17:07N 49°30' W 124°43'1 0.1
2017-Feb-19 06:28N 49°31' W 124°42'2612.9
2017-Feb-19 04:26N 49°47' W 124°11'2627.7
2017-Feb-19 03:30N 49°31' W 124°42'1 1.0
2017-Feb-19 02:31N 49°30' W 124°43'0 0.0
2017-Feb-19 01:34N 49°30' W 124°43'0 0.0
2017-Feb-19 00:32N 49°30' W 124°43'0 0.0
2017-Feb-18 23:33N 49°30' W 124°43'1 0.9
2017-Feb-18 22:33N 49°31' W 124°42'1 0.9
2017-Feb-18 21:33N 49°30' W 124°43'27241.0
2017-Feb-18 21:26N 49°47' W 124°11'2730.3
2017-Feb-18 20:33N 49°30' W 124°43'0 0.0
2017-Feb-18 19:32N 49°30' W 124°43'0 0.0
2017-Feb-18 18:33N 49°30' W 124°43'0 0.0
2017-Feb-18 17:32N 49°30' W 124°43'1 1.0
2017-Feb-18 16:33N 49°31' W 124°42'26 8.7
2017-Feb-18 13:32N 49°47' W 124°11'26 5.2
2017-Feb-18 08:28N 49°31' W 124°42'0 0.0
2017-Feb-18 06:17N 49°31' W 124°42'1 0.5
2017-Feb-18 04:31N 49°30' W 124°43'1 1.1
2017-Feb-18 03:33N 49°31' W 124°42'1 1.0
2017-Feb-18 02:33N 49°30' W 124°43'0 0.1
2017-Feb-18 01:32N 49°30' W 124°42'0 0.1
2017-Feb-18 00:33N 49°30' W 124°43'2773.9
2017-Feb-18 00:11N 49°47' W 124°11'2742.5
2017-Feb-17 23:33N 49°30' W 124°43'0 0.0
2017-Feb-17 22:30N 49°30' W 124°43'2775.6
2017-Feb-17 22:08N 49°47' W 124°11'2744.9
2017-Feb-17 21:32N 49°30' W 124°43'0 0.0
2017-Feb-17 20:33N 49°30' W 124°43'0 0.0
2017-Feb-17 19:32N 49°30' W 124°43'0 0.0
2017-Feb-17 18:33N 49°30' W 124°43'0 0.0
2017-Feb-17 17:33N 49°30' W 124°43'0 0.1
2017-Feb-17 16:33N 49°30' W 124°42'1 0.6
2017-Feb-17 15:33N 49°30' W 124°42'0 0.3
2017-Feb-17 14:33N 49°31' W 124°42'0 0.0
2017-Feb-17 13:33N 49°31' W 124°42'0 0.0
2017-Feb-17 12:33N 49°31' W 124°42'26627.0
2017-Feb-17 12:30N 49°47' W 124°11'2627.4
2017-Feb-17 11:33N 49°31' W 124°42'0 0.0
2017-Feb-17 10:33N 49°31' W 124°42'0 0.0
2017-Feb-17 09:33N 49°31' W 124°42'0 0.0
2017-Feb-17 08:33N 49°31' W 124°42'0 0.0
2017-Feb-17 07:33N 49°31' W 124°42'0 0.0
2017-Feb-17 06:33N 49°31' W 124°42'0 0.0
2017-Feb-17 05:33N 49°31' W 124°42'0 0.0
2017-Feb-17 04:33N 49°31' W 124°42'0 0.0
2017-Feb-17 03:04N 49°31' W 124°42'1 1.8
2017-Feb-17 02:30N 49°30' W 124°43'0 0.0
2017-Feb-17 01:33N 49°30' W 124°43'0 0.0
2017-Feb-17 00:31N 49°30' W 124°43'0 0.0
2017-Feb-16 23:28N 49°30' W 124°43'1 0.9
2017-Feb-16 22:32N 49°31' W 124°42'0 0.3
2017-Feb-16 21:33N 49°30' W 124°42'0 0.4
2017-Feb-16 20:26N 49°31' W 124°42'1 1.1
2017-Feb-16 19:33N 49°30' W 124°43'1 1.0
2017-Feb-16 18:30N 49°31' W 124°42'1 1.0
2017-Feb-16 17:31N 49°30' W 124°43'1 1.1
2017-Feb-16 16:33N 49°31' W 124°42'0 0.1
2017-Feb-16 15:33N 49°31' W 124°42'0 0.0
2017-Feb-16 09:23N 49°31' W 124°42'2622.7
2017-Feb-16 08:14N 49°47' W 124°11'0 0.0
2017-Feb-16 07:32N 49°47' W 124°11'26104.3
2017-Feb-16 07:17N 49°31' W 124°42'2634.9
2017-Feb-16 06:32N 49°47' W 124°11'26129.2
2017-Feb-16 06:20N 49°31' W 124°42'2632.7
2017-Feb-16 05:32N 49°47' W 124°11'26503.0
2017-Feb-16 05:29N 49°31' W 124°42'2627.8
2017-Feb-16 04:33N 49°47' W 124°11'0 0.0
2017-Feb-16 03:32N 49°47' W 124°11'26103.7
2017-Feb-16 03:17N 49°31' W 124°42'1 1.4
2017-Feb-16 02:34N 49°30' W 124°43'27390.7
2017-Feb-16 02:29N 49°47' W 124°11'2728.8
2017-Feb-16 01:33N 49°30' W 124°43'271699.7
2017-Feb-16 01:32N 49°47' W 124°11'2727.4
2017-Feb-16 00:33N 49°30' W 124°43'27405.4
2017-Feb-16 00:29N 49°47' W 124°11'2728.8
2017-Feb-15 23:33N 49°30' W 124°43'271614.7
2017-Feb-15 23:32N 49°47' W 124°11'2725.4
2017-Feb-15 22:30N 49°30' W 124°42'276842.5
2017-Feb-15 22:29N 49°47' W 124°11'2728.8
2017-Feb-15 21:33N 49°30' W 124°43'271699.7
2017-Feb-15 21:32N 49°47' W 124°11'2727.4
2017-Feb-15 20:33N 49°30' W 124°43'271670.4
2017-Feb-15 20:32N 49°47' W 124°11'2727.2
2017-Feb-15 19:33N 49°30' W 124°43'272549.6
2017-Feb-15 19:32N 49°47' W 124°11'2727.3
2017-Feb-15 18:33N 49°30' W 124°43'27423.1
2017-Feb-15 18:29N 49°47' W 124°11'2728.8
2017-Feb-15 17:33N 49°30' W 124°43'271670.4
2017-Feb-15 17:32N 49°47' W 124°11'2626.5
2017-Feb-15 16:33N 49°31' W 124°42'262418.6
2017-Feb-15 16:32N 49°47' W 124°11'0 0.0
2017-Feb-15 15:32N 49°47' W 124°11'261386.2
2017-Feb-15 15:31N 49°31' W 124°42'2626.7
2017-Feb-15 14:32N 49°47' W 124°11'261425.1
2017-Feb-15 14:31N 49°31' W 124°42'0 0.0
2017-Feb-15 13:31N 49°31' W 124°42'26198.0
2017-Feb-15 13:23N 49°47' W 124°11'2630.1
2017-Feb-15 12:31N 49°31' W 124°42'26810.8
2017-Feb-15 12:29N 49°47' W 124°11'0 0.0
2017-Feb-15 11:32N 49°47' W 124°11'26119.7
2017-Feb-15 11:19N 49°31' W 124°42'2633.4
2017-Feb-15 10:32N 49°47' W 124°11'26119.8
2017-Feb-15 10:19N 49°31' W 124°42'2633.4
2017-Feb-15 09:32N 49°47' W 124°11'261492.9
2017-Feb-15 09:31N 49°31' W 124°42'0 0.0
2017-Feb-15 08:31N 49°31' W 124°42'26810.8
2017-Feb-15 08:29N 49°47' W 124°11'0 0.0
2017-Feb-15 07:32N 49°47' W 124°11'0 0.0
2017-Feb-15 06:32N 49°47' W 124°11'0 0.0
2017-Feb-15 05:32N 49°47' W 124°11'0 0.0
2017-Feb-15 04:32N 49°47' W 124°11'0 0.0
2017-Feb-15 03:32N 49°47' W 124°11'2727.3
2017-Feb-15 02:33N 49°30' W 124°43'27124.9
2017-Feb-15 02:20N 49°47' W 124°11'2734.5
2017-Feb-15 01:34N 49°30' W 124°43'271424.8
2017-Feb-15 01:32N 49°47' W 124°11'2727.4
2017-Feb-15 00:34N 49°30' W 124°43'271490.5
2017-Feb-15 00:32N 49°47' W 124°11'2727.3
2017-Feb-14 23:33N 49°30' W 124°43'271670.4
2017-Feb-14 23:32N 49°47' W 124°11'2727.3
2017-Feb-14 22:33N 49°30' W 124°43'27426.8
2017-Feb-14 22:29N 49°47' W 124°11'2728.9
2017-Feb-14 21:34N 49°30' W 124°43'271467.9
2017-Feb-14 21:32N 49°47' W 124°11'2727.1
2017-Feb-14 20:33N 49°30' W 124°43'273229.5
2017-Feb-14 20:32N 49°47' W 124°11'2727.1
2017-Feb-14 19:33N 49°30' W 124°43'273588.3
2017-Feb-14 19:32N 49°47' W 124°11'2727.4
2017-Feb-14 18:34N 49°30' W 124°43'27392.2
2017-Feb-14 18:29N 49°47' W 124°11'2728.8
2017-Feb-14 17:33N 49°30' W 124°43'271699.7
2017-Feb-14 17:32N 49°47' W 124°11'2626.7
2017-Feb-14 16:33N 49°30' W 124°42'261549.9
2017-Feb-14 16:32N 49°47' W 124°11'2626.8
2017-Feb-14 15:33N 49°30' W 124°42'26405.4
2017-Feb-14 15:29N 49°47' W 124°11'0 0.0
2017-Feb-14 14:32N 49°47' W 124°11'26528.4
2017-Feb-14 14:29N 49°31' W 124°42'0 0.0
2017-Feb-14 13:32N 49°31' W 124°42'26514.0
2017-Feb-14 13:29N 49°47' W 124°11'0 0.0
2017-Feb-14 12:32N 49°47' W 124°11'26525.5
2017-Feb-14 12:29N 49°31' W 124°42'2626.1
2017-Feb-14 11:29N 49°47' W 124°11'26269.5
2017-Feb-14 11:24N 49°31' W 124°42'0 0.0
2017-Feb-14 10:32N 49°31' W 124°42'2647027.9
2017-Feb-14 10:32N 49°47' W 124°11'0 0.0
2017-Feb-14 09:32N 49°47' W 124°11'26531.4
2017-Feb-14 09:29N 49°31' W 124°42'2627.5
2017-Feb-14 08:32N 49°47' W 124°11'26534.4
2017-Feb-14 08:29N 49°31' W 124°42'0 0.0
2017-Feb-14 07:30N 49°31' W 124°42'267235.1
2017-Feb-14 07:29N 49°47' W 124°11'0 0.0
2017-Feb-14 06:32N 49°47' W 124°11'26178.1
2017-Feb-14 06:24N 49°31' W 124°42'2630.6
2017-Feb-14 05:32N 49°47' W 124°11'26174.5
2017-Feb-14 05:23N 49°31' W 124°42'0 0.0
2017-Feb-14 04:32N 49°31' W 124°42'26129.9
2017-Feb-14 04:20N 49°47' W 124°11'0 0.0
2017-Feb-14 03:32N 49°47' W 124°11'26522.5
2017-Feb-14 03:29N 49°31' W 124°42'1 1.1
2017-Feb-14 02:33N 49°30' W 124°43'271537.8
2017-Feb-14 02:32N 49°47' W 124°11'2727.3
2017-Feb-14 01:33N 49°30' W 124°43'27417.6
2017-Feb-14 01:29N 49°47' W 124°11'2728.9
2017-Feb-14 00:33N 49°30' W 124°43'271537.8
2017-Feb-14 00:32N 49°47' W 124°11'2727.4
2017-Feb-13 23:33N 49°30' W 124°43'271513.8
2017-Feb-13 23:32N 49°47' W 124°11'2727.3
2017-Feb-13 22:33N 49°30' W 124°43'271863.2
2017-Feb-13 22:32N 49°47' W 124°11'2727.3
2017-Feb-13 21:33N 49°30' W 124°43'271794.1
2017-Feb-13 21:32N 49°47' W 124°11'2727.3
2017-Feb-13 20:33N 49°30' W 124°43'271863.2
2017-Feb-13 20:32N 49°47' W 124°11'2727.4
2017-Feb-13 19:33N 49°30' W 124°43'271513.8
2017-Feb-13 19:32N 49°47' W 124°11'2727.4
2017-Feb-13 18:33N 49°30' W 124°43'27229.0
2017-Feb-13 18:26N 49°47' W 124°11'2730.5
2017-Feb-13 17:33N 49°30' W 124°43'27123.9
2017-Feb-13 17:20N 49°47' W 124°11'2633.3
2017-Feb-13 16:33N 49°31' W 124°42'261774.6
2017-Feb-13 16:32N 49°47' W 124°11'2626.9
2017-Feb-13 15:33N 49°30' W 124°42'26391.0
2017-Feb-13 15:29N 49°47' W 124°11'0 0.0
2017-Feb-13 14:32N 49°47' W 124°11'26783.8
2017-Feb-13 14:30N 49°31' W 124°42'0 0.0
2017-Feb-13 13:18N 49°31' W 124°42'0 0.0
2017-Feb-13 12:30N 49°31' W 124°42'2627.0
2017-Feb-13 11:32N 49°47' W 124°11'26195.1
2017-Feb-13 11:24N 49°31' W 124°42'2630.1
2017-Feb-13 10:32N 49°47' W 124°11'26783.8
2017-Feb-13 10:30N 49°31' W 124°42'2627.0
2017-Feb-13 09:32N 49°47' W 124°11'26777.3
2017-Feb-13 09:30N 49°31' W 124°42'2627.0
2017-Feb-13 08:32N 49°47' W 124°11'26783.8
2017-Feb-13 08:30N 49°31' W 124°42'2622.4
2017-Feb-13 07:20N 49°47' W 124°11'26194.7
2017-Feb-13 07:12N 49°31' W 124°42'2639.2
2017-Feb-13 06:32N 49°47' W 124°11'26777.3
2017-Feb-13 06:30N 49°31' W 124°42'0 0.0
2017-Feb-13 05:18N 49°31' W 124°42'261621.7
2017-Feb-13 05:17N 49°47' W 124°11'2633.3
2017-Feb-13 04:30N 49°31' W 124°42'26225.0
2017-Feb-13 04:23N 49°47' W 124°11'0 0.0
2017-Feb-13 03:32N 49°47' W 124°11'26783.8
2017-Feb-13 03:30N 49°31' W 124°42'1 1.1
2017-Feb-13 02:34N 49°30' W 124°43'27393.8
2017-Feb-13 02:29N 49°47' W 124°11'  
Track history (hours):
 
Tides and Currents Weather Stations Pressure Air Temp Water Temp Dewpoint Dewpoint Depression Visibility Wind Speed Wind Dir Waves Ship Positions

Kahloke

Last reported at 2017-Feb-23 02:15 UTC. Time now 2017-Feb-23 02:43 UTC.
Position N 49°32' W 124°49'.

Length 54 m; draft 2 m.

Type: Passenger vessel. MMSI: 316001236.

Date/timePositionNaut miles runAvg speedWind from/ knotsBaromVisibWave heightAir tempDewpointWater temp
2017-Feb-23 02:15N 49°32' W 124°49'5172.8
2017-Feb-23 02:13N 49°30' W 124°43'5 6.8
2017-Feb-23 01:28N 49°32' W 124°49'529.9
2017-Feb-23 01:18N 49°30' W 124°43'5 5.8
2017-Feb-23 00:25N 49°32' W 124°49'5114.3
2017-Feb-23 00:23N 49°30' W 124°43'5 5.7
2017-Feb-22 23:30N 49°32' W 124°49'513.5
2017-Feb-22 23:07N 49°30' W 124°43'0 0.2
2017-Feb-22 22:25N 49°30' W 124°43'560.4
2017-Feb-22 22:20N 49°32' W 124°49'1 0.8
2017-Feb-22 21:33N 49°32' W 124°50'599.5
2017-Feb-22 21:29N 49°30' W 124°43'6 5.2
2017-Feb-22 20:23N 49°32' W 124°51'627.9
2017-Feb-22 20:11N 49°30' W 124°43'5 8.1
2017-Feb-22 19:33N 49°32' W 124°49'513.3
2017-Feb-22 19:10N 49°30' W 124°43'5 8.1
2017-Feb-22 18:33N 49°32' W 124°49'516.4
2017-Feb-22 18:14N 49°30' W 124°43'5 7.5
2017-Feb-22 17:33N 49°32' W 124°49'514.4
2017-Feb-22 17:12N 49°30' W 124°43'5 7.9
2017-Feb-22 16:33N 49°32' W 124°49'5365.8
2017-Feb-22 16:32N 49°30' W 124°42'6 5.8
2017-Feb-22 15:33N 49°32' W 124°51'6 5.5
2017-Feb-22 14:31N 49°30' W 124°42'0 0.1
2017-Feb-22 11:19N 49°31' W 124°42'0 0.0
2017-Feb-22 09:31N 49°31' W 124°42'5 5.1
2017-Feb-22 08:33N 49°32' W 124°49'5148.0
2017-Feb-22 08:31N 49°31' W 124°42'0 0.0
2017-Feb-22 07:31N 49°31' W 124°42'0 0.0
2017-Feb-22 06:25N 49°31' W 124°42'0 0.0
2017-Feb-22 05:31N 49°31' W 124°42'5 5.1
2017-Feb-22 04:33N 49°32' W 124°50'1 0.7
2017-Feb-22 03:14N 49°32' W 124°51'1 1.2
2017-Feb-22 02:25N 49°32' W 124°49'534.8
2017-Feb-22 02:16N 49°30' W 124°43'5 6.0
2017-Feb-22 01:26N 49°32' W 124°49'530.3
2017-Feb-22 01:15N 49°30' W 124°43'0 0.0
2017-Feb-22 00:26N 49°30' W 124°43'540.8
2017-Feb-22 00:18N 49°32' W 124°49'0 0.0
2017-Feb-21 23:33N 49°32' W 124°49'516.6
2017-Feb-21 23:14N 49°30' W 124°43'5 7.4
2017-Feb-21 22:33N 49°32' W 124°49'5179.6
2017-Feb-21 22:31N 49°30' W 124°42'1 0.6
2017-Feb-21 21:31N 49°30' W 124°43'51670.7
2017-Feb-21 21:31N 49°32' W 124°49'1 0.7
2017-Feb-21 20:33N 49°32' W 124°50'616.6
2017-Feb-21 20:13N 49°30' W 124°43'6 8.6
2017-Feb-21 19:33N 49°32' W 124°51'668.8
2017-Feb-21 19:28N 49°30' W 124°43'5 5.6
2017-Feb-21 18:32N 49°32' W 124°50'5167.2
2017-Feb-21 18:31N 49°30' W 124°43'0 0.0
2017-Feb-21 17:33N 49°30' W 124°43'0 0.2
2017-Feb-21 16:33N 49°30' W 124°42'1 0.2
2017-Feb-21 11:26N 49°31' W 124°42'0 0.0
2017-Feb-21 09:32N 49°31' W 124°42'1 0.1
2017-Feb-21 02:18N 49°30' W 124°43'0 0.2
2017-Feb-21 01:23N 49°30' W 124°43'0 0.0
2017-Feb-21 00:29N 49°30' W 124°43'6 6.0
2017-Feb-20 23:32N 49°32' W 124°51'614.6
2017-Feb-20 23:08N 49°30' W 124°43'2 2.9
2017-Feb-20 22:33N 49°28' W 124°41'270.2
2017-Feb-20 22:32N 49°30' W 124°42'6 5.7
2017-Feb-20 21:33N 49°35' W 124°43'8 8.6
2017-Feb-20 20:33N 49°44' W 124°40'1442.9
2017-Feb-20 20:13N 49°30' W 124°43'1928.3
2017-Feb-20 19:33N 49°48' W 124°33'19149.6
2017-Feb-20 19:25N 49°30' W 124°43'2123.7
2017-Feb-20 18:33N 49°44' W 124°20'21573.5
2017-Feb-20 18:31N 49°30' W 124°43'1 0.6
2017-Feb-20 17:28N 49°30' W 124°42'26271.8
2017-Feb-20 17:22N 49°47' W 124°11'26 4.5
2017-Feb-20 11:30N 49°31' W 124°42'0 0.0
2017-Feb-20 10:30N 49°31' W 124°42'0 0.0
2017-Feb-20 09:30N 49°31' W 124°42'0 0.0
2017-Feb-20 08:30N 49°31' W 124°42'0 0.0
2017-Feb-20 07:18N 49°31' W 124°42'0 0.0
2017-Feb-20 06:30N 49°31' W 124°42'1 0.2
2017-Feb-20 02:15N 49°30' W 124°43'0 0.1
2017-Feb-20 01:21N 49°30' W 124°43'0 0.1
2017-Feb-20 00:19N 49°30' W 124°42'0 0.1
2017-Feb-19 23:33N 49°30' W 124°43'27390.7
2017-Feb-19 23:29N 49°47' W 124°11'0 0.0
2017-Feb-19 22:24N 49°47' W 124°11'27256.7
2017-Feb-19 22:18N 49°30' W 124°43'2722.9
2017-Feb-19 21:07N 49°47' W 124°11'0 0.0
2017-Feb-19 20:30N 49°47' W 124°11'2766.7
2017-Feb-19 20:06N 49°30' W 124°43'2546.1
2017-Feb-19 19:33N 49°47' W 124°13'2671.1
2017-Feb-19 19:11N 49°30' W 124°43'2741.9
2017-Feb-19 18:33N 49°47' W 124°11'2787.0
2017-Feb-19 18:14N 49°30' W 124°43'0 0.1
2017-Feb-19 17:07N 49°30' W 124°43'1 0.1
2017-Feb-19 06:28N 49°31' W 124°42'2612.9
2017-Feb-19 04:26N 49°47' W 124°11'2627.7
2017-Feb-19 03:30N 49°31' W 124°42'1 1.0
2017-Feb-19 02:31N 49°30' W 124°43'0 0.0
2017-Feb-19 01:34N 49°30' W 124°43'0 0.0
2017-Feb-19 00:32N 49°30' W 124°43'0 0.0
2017-Feb-18 23:33N 49°30' W 124°43'1 0.9
2017-Feb-18 22:33N 49°31' W 124°42'1 0.9
2017-Feb-18 21:33N 49°30' W 124°43'27241.0
2017-Feb-18 21:26N 49°47' W 124°11'2730.3
2017-Feb-18 20:33N 49°30' W 124°43'0 0.0
2017-Feb-18 19:32N 49°30' W 124°43'0 0.0
2017-Feb-18 18:33N 49°30' W 124°43'0 0.0
2017-Feb-18 17:32N 49°30' W 124°43'1 1.0
2017-Feb-18 16:33N 49°31' W 124°42'26 8.7
2017-Feb-18 13:32N 49°47' W 124°11'26 5.2
2017-Feb-18 08:28N 49°31' W 124°42'0 0.0
2017-Feb-18 06:17N 49°31' W 124°42'1 0.5
2017-Feb-18 04:31N 49°30' W 124°43'1 1.1
2017-Feb-18 03:33N 49°31' W 124°42'1 1.0
2017-Feb-18 02:33N 49°30' W 124°43'0 0.1
2017-Feb-18 01:32N 49°30' W 124°42'0 0.1
2017-Feb-18 00:33N 49°30' W 124°43'2773.9
2017-Feb-18 00:11N 49°47' W 124°11'2742.5
2017-Feb-17 23:33N 49°30' W 124°43'0 0.0
2017-Feb-17 22:30N 49°30' W 124°43'2775.6
2017-Feb-17 22:08N 49°47' W 124°11'2744.9
2017-Feb-17 21:32N 49°30' W 124°43'0 0.0
2017-Feb-17 20:33N 49°30' W 124°43'0 0.0
2017-Feb-17 19:32N 49°30' W 124°43'0 0.0
2017-Feb-17 18:33N 49°30' W 124°43'0 0.0
2017-Feb-17 17:33N 49°30' W 124°43'0 0.1
2017-Feb-17 16:33N 49°30' W 124°42'1 0.6
2017-Feb-17 15:33N 49°30' W 124°42'0 0.3
2017-Feb-17 14:33N 49°31' W 124°42'0 0.0
2017-Feb-17 13:33N 49°31' W 124°42'0 0.0
2017-Feb-17 12:33N 49°31' W 124°42'26627.0
2017-Feb-17 12:30N 49°47' W 124°11'2627.4
2017-Feb-17 11:33N 49°31' W 124°42'0 0.0
2017-Feb-17 10:33N 49°31' W 124°42'0 0.0
2017-Feb-17 09:33N 49°31' W 124°42'0 0.0
2017-Feb-17 08:33N 49°31' W 124°42'0 0.0
2017-Feb-17 07:33N 49°31' W 124°42'0 0.0
2017-Feb-17 06:33N 49°31' W 124°42'0 0.0
2017-Feb-17 05:33N 49°31' W 124°42'0 0.0
2017-Feb-17 04:33N 49°31' W 124°42'0 0.0
2017-Feb-17 03:04N 49°31' W 124°42'1 1.8
2017-Feb-17 02:30N 49°30' W 124°43'0 0.0
2017-Feb-17 01:33N 49°30' W 124°43'0 0.0
2017-Feb-17 00:31N 49°30' W 124°43'0 0.0
2017-Feb-16 23:28N 49°30' W 124°43'1 0.9
2017-Feb-16 22:32N 49°31' W 124°42'0 0.3
2017-Feb-16 21:33N 49°30' W 124°42'0 0.4
2017-Feb-16 20:26N 49°31' W 124°42'1 1.1
2017-Feb-16 19:33N 49°30' W 124°43'1 1.0
2017-Feb-16 18:30N 49°31' W 124°42'1 1.0
2017-Feb-16 17:31N 49°30' W 124°43'1 1.1
2017-Feb-16 16:33N 49°31' W 124°42'0 0.1
2017-Feb-16 15:33N 49°31' W 124°42'0 0.0
2017-Feb-16 09:23N 49°31' W 124°42'2622.7
2017-Feb-16 08:14N 49°47' W 124°11'0 0.0
2017-Feb-16 07:32N 49°47' W 124°11'26104.3
2017-Feb-16 07:17N 49°31' W 124°42'2634.9
2017-Feb-16 06:32N 49°47' W 124°11'26129.2
2017-Feb-16 06:20N 49°31' W 124°42'2632.7
2017-Feb-16 05:32N 49°47' W 124°11'26503.0
2017-Feb-16 05:29N 49°31' W 124°42'2627.8
2017-Feb-16 04:33N 49°47' W 124°11'0 0.0
2017-Feb-16 03:32N 49°47' W 124°11'26103.7
2017-Feb-16 03:17N 49°31' W 124°42'1 1.4
2017-Feb-16 02:34N 49°30' W 124°43'27390.7
2017-Feb-16 02:29N 49°47' W 124°11'2728.8
2017-Feb-16 01:33N 49°30' W 124°43'271699.7
2017-Feb-16 01:32N 49°47' W 124°11'2727.4
2017-Feb-16 00:33N 49°30' W 124°43'27405.4
2017-Feb-16 00:29N 49°47' W 124°11'2728.8
2017-Feb-15 23:33N 49°30' W 124°43'271614.7
2017-Feb-15 23:32N 49°47' W 124°11'2725.4
2017-Feb-15 22:30N 49°30' W 124°42'276842.5
2017-Feb-15 22:29N 49°47' W 124°11'2728.8
2017-Feb-15 21:33N 49°30' W 124°43'271699.7
2017-Feb-15 21:32N 49°47' W 124°11'2727.4
2017-Feb-15 20:33N 49°30' W 124°43'271670.4
2017-Feb-15 20:32N 49°47' W 124°11'2727.2
2017-Feb-15 19:33N 49°30' W 124°43'272549.6
2017-Feb-15 19:32N 49°47' W 124°11'2727.3
2017-Feb-15 18:33N 49°30' W 124°43'27423.1
2017-Feb-15 18:29N 49°47' W 124°11'2728.8
2017-Feb-15 17:33N 49°30' W 124°43'271670.4
2017-Feb-15 17:32N 49°47' W 124°11'2626.5
2017-Feb-15 16:33N 49°31' W 124°42'262418.6
2017-Feb-15 16:32N 49°47' W 124°11'0 0.0
2017-Feb-15 15:32N 49°47' W 124°11'261386.2
2017-Feb-15 15:31N 49°31' W 124°42'2626.7
2017-Feb-15 14:32N 49°47' W 124°11'261425.1
2017-Feb-15 14:31N 49°31' W 124°42'0 0.0
2017-Feb-15 13:31N 49°31' W 124°42'26198.0
2017-Feb-15 13:23N 49°47' W 124°11'2630.1
2017-Feb-15 12:31N 49°31' W 124°42'26810.8
2017-Feb-15 12:29N 49°47' W 124°11'0 0.0
2017-Feb-15 11:32N 49°47' W 124°11'26119.7
2017-Feb-15 11:19N 49°31' W 124°42'2633.4
2017-Feb-15 10:32N 49°47' W 124°11'26119.8
2017-Feb-15 10:19N 49°31' W 124°42'2633.4
2017-Feb-15 09:32N 49°47' W 124°11'261492.9
2017-Feb-15 09:31N 49°31' W 124°42'0 0.0
2017-Feb-15 08:31N 49°31' W 124°42'26810.8
2017-Feb-15 08:29N 49°47' W 124°11'0 0.0
2017-Feb-15 07:32N 49°47' W 124°11'0 0.0
2017-Feb-15 06:32N 49°47' W 124°11'0 0.0
2017-Feb-15 05:32N 49°47' W 124°11'0 0.0
2017-Feb-15 04:32N 49°47' W 124°11'0 0.0
2017-Feb-15 03:32N 49°47' W 124°11'2727.3
2017-Feb-15 02:33N 49°30' W 124°43'27124.9
2017-Feb-15 02:20N 49°47' W 124°11'2734.5
2017-Feb-15 01:34N 49°30' W 124°43'271424.8
2017-Feb-15 01:32N 49°47' W 124°11'2727.4
2017-Feb-15 00:34N 49°30' W 124°43'271490.5
2017-Feb-15 00:32N 49°47' W 124°11'2727.3
2017-Feb-14 23:33N 49°30' W 124°43'271670.4
2017-Feb-14 23:32N 49°47' W 124°11'2727.3
2017-Feb-14 22:33N 49°30' W 124°43'27426.8
2017-Feb-14 22:29N 49°47' W 124°11'2728.9
2017-Feb-14 21:34N 49°30' W 124°43'271467.9
2017-Feb-14 21:32N 49°47' W 124°11'2727.1
2017-Feb-14 20:33N 49°30' W 124°43'273229.5
2017-Feb-14 20:32N 49°47' W 124°11'2727.1
2017-Feb-14 19:33N 49°30' W 124°43'273588.3
2017-Feb-14 19:32N 49°47' W 124°11'2727.4
2017-Feb-14 18:34N 49°30' W 124°43'27392.2
2017-Feb-14 18:29N 49°47' W 124°11'2728.8
2017-Feb-14 17:33N 49°30' W 124°43'271699.7
2017-Feb-14 17:32N 49°47' W 124°11'2626.7
2017-Feb-14 16:33N 49°30' W 124°42'261549.9
2017-Feb-14 16:32N 49°47' W 124°11'2626.8
2017-Feb-14 15:33N 49°30' W 124°42'26405.4
2017-Feb-14 15:29N 49°47' W 124°11'0 0.0
2017-Feb-14 14:32N 49°47' W 124°11'26528.4
2017-Feb-14 14:29N 49°31' W 124°42'0 0.0
2017-Feb-14 13:32N 49°31' W 124°42'26514.0
2017-Feb-14 13:29N 49°47' W 124°11'0 0.0
2017-Feb-14 12:32N 49°47' W 124°11'26525.5
2017-Feb-14 12:29N 49°31' W 124°42'2626.1
2017-Feb-14 11:29N 49°47' W 124°11'26269.5
2017-Feb-14 11:24N 49°31' W 124°42'0 0.0
2017-Feb-14 10:32N 49°31' W 124°42'2647027.9
2017-Feb-14 10:32N 49°47' W 124°11'0 0.0
2017-Feb-14 09:32N 49°47' W 124°11'26531.4
2017-Feb-14 09:29N 49°31' W 124°42'2627.5
2017-Feb-14 08:32N 49°47' W 124°11'26534.4
2017-Feb-14 08:29N 49°31' W 124°42'0 0.0
2017-Feb-14 07:30N 49°31' W 124°42'267235.1
2017-Feb-14 07:29N 49°47' W 124°11'0 0.0
2017-Feb-14 06:32N 49°47' W 124°11'26178.1
2017-Feb-14 06:24N 49°31' W 124°42'2630.6
2017-Feb-14 05:32N 49°47' W 124°11'26174.5
2017-Feb-14 05:23N 49°31' W 124°42'0 0.0
2017-Feb-14 04:32N 49°31' W 124°42'26129.9
2017-Feb-14 04:20N 49°47' W 124°11'0 0.0
2017-Feb-14 03:32N 49°47' W 124°11'26522.5
2017-Feb-14 03:29N 49°31' W 124°42'1 1.1
2017-Feb-14 02:33N 49°30' W 124°43'271537.8
2017-Feb-14 02:32N 49°47' W 124°11'2727.3
2017-Feb-14 01:33N 49°30' W 124°43'27417.6
2017-Feb-14 01:29N 49°47' W 124°11'2728.9
2017-Feb-14 00:33N 49°30' W 124°43'271537.8
2017-Feb-14 00:32N 49°47' W 124°11'2727.4
2017-Feb-13 23:33N 49°30' W 124°43'271513.8
2017-Feb-13 23:32N 49°47' W 124°11'2727.3
2017-Feb-13 22:33N 49°30' W 124°43'271863.2
2017-Feb-13 22:32N 49°47' W 124°11'2727.3
2017-Feb-13 21:33N 49°30' W 124°43'271794.1
2017-Feb-13 21:32N 49°47' W 124°11'2727.3
2017-Feb-13 20:33N 49°30' W 124°43'271863.2
2017-Feb-13 20:32N 49°47' W 124°11'2727.4
2017-Feb-13 19:33N 49°30' W 124°43'271513.8
2017-Feb-13 19:32N 49°47' W 124°11'2727.4
2017-Feb-13 18:33N 49°30' W 124°43'27229.0
2017-Feb-13 18:26N 49°47' W 124°11'2730.5
2017-Feb-13 17:33N 49°30' W 124°43'27123.9
2017-Feb-13 17:20N 49°47' W 124°11'2633.3
2017-Feb-13 16:33N 49°31' W 124°42'261774.6
2017-Feb-13 16:32N 49°47' W 124°11'2626.9
2017-Feb-13 15:33N 49°30' W 124°42'26391.0
2017-Feb-13 15:29N 49°47' W 124°11'0 0.0
2017-Feb-13 14:32N 49°47' W 124°11'26783.8
2017-Feb-13 14:30N 49°31' W 124°42'0 0.0
2017-Feb-13 13:18N 49°31' W 124°42'0 0.0
2017-Feb-13 12:30N 49°31' W 124°42'2627.0
2017-Feb-13 11:32N 49°47' W 124°11'26195.1
2017-Feb-13 11:24N 49°31' W 124°42'2630.1
2017-Feb-13 10:32N 49°47' W 124°11'26783.8
2017-Feb-13 10:30N 49°31' W 124°42'2627.0
2017-Feb-13 09:32N 49°47' W 124°11'26777.3
2017-Feb-13 09:30N 49°31' W 124°42'2627.0
2017-Feb-13 08:32N 49°47' W 124°11'26783.8
2017-Feb-13 08:30N 49°31' W 124°42'2622.4
2017-Feb-13 07:20N 49°47' W 124°11'26194.7
2017-Feb-13 07:12N 49°31' W 124°42'2639.2
2017-Feb-13 06:32N 49°47' W 124°11'26777.3
2017-Feb-13 06:30N 49°31' W 124°42'0 0.0
2017-Feb-13 05:18N 49°31' W 124°42'261621.7
2017-Feb-13 05:17N 49°47' W 124°11'2633.3
2017-Feb-13 04:30N 49°31' W 124°42'26225.0
2017-Feb-13 04:23N 49°47' W 124°11'0 0.0
2017-Feb-13 03:32N 49°47' W 124°11'26783.8
2017-Feb-13 03:30N 49°31' W 124°42'1 1.1
2017-Feb-13 02:34N 49°30' W 124°43'27393.8
2017-Feb-13 02:29N 49°47' W 124°11'  

Dump ship's entire track history